Mellott, Indiana
Current Conditions -  °F | °C
As of 4:54 PM on Thursday 18 Dec 2014 (Local Time) from KLAF Reporting Station
Overcast Overcast  
Wind Chill: 21°   Ceiling: 1700
Heat Index: 26°   Visibility: 9mi
Dew Point: 21°   Wind: 5mph
Humidity: 81%   Direction: 330°NNW
Pressure: 30.24"   Gusts: NA
Location:  40.17°N, 87.15°W
Report Text: KLAF 182154Z 33004KT 9SM BKN017 OVC055 M03/M06 A3024 RMK AO2 SLP249 T10331061
Loading
Personal Weather Stations






























Interactive Weather Map New forecast layout! Learn more

10-Day Weather Forecast

Advertisements
Track Severe Weather on mobile